Time;durP1;ratioP1;P1;durP2;ratioP2;P2;SDS_P1;SDS_P2;PMS_P1;PMS_P2;Temp;Humidity;BMP_temperature;BMP_pressure;BME280_temperature;BME280_humidity;BME280_pressure;Samples;Min_cycle;Max_cycle;Signal;HPM_P1;HPM_P2
2023/12/03 00:00:48;;;;;;;25.00;12.43;;;;;;;-0.93;100.00;101008.53;5051884;28;20232;-76
2023/12/03 00:03:16;;;;;;;26.80;12.97;;;;;;;-0.94;100.00;101021.59;5051715;28;20740;-76
2023/12/03 00:05:43;;;;;;;22.03;11.10;;;;;;;-0.96;100.00;101012.91;5046850;28;20213;-77
2023/12/03 00:08:10;;;;;;;24.03;11.67;;;;;;;-0.98;100.00;101012.06;5051647;28;20221;-75
2023/12/03 00:10:36;;;;;;;23.17;12.63;;;;;;;-1.01;100.00;101005.09;5053458;28;20599;-77
2023/12/03 00:13:03;;;;;;;23.30;11.60;;;;;;;-1.00;100.00;101004.22;5052352;28;20206;-76
2023/12/03 00:15:29;;;;;;;20.47;11.03;;;;;;;-1.03;100.00;101004.25;5050400;28;20198;-76
2023/12/03 00:17:55;;;;;;;21.50;11.00;;;;;;;-1.08;100.00;101012.16;5047915;28;20232;-76
2023/12/03 00:20:24;;;;;;;17.03;9.80;;;;;;;-1.05;100.00;101011.25;5046643;28;20247;-75
2023/12/03 00:22:50;;;;;;;19.17;10.77;;;;;;;-1.07;100.00;101007.78;5051924;28;20220;-76
2023/12/03 00:25:17;;;;;;;18.43;9.97;;;;;;;-1.08;99.98;101017.41;5053946;28;20213;-77
2023/12/03 00:27:43;;;;;;;19.17;9.67;;;;;;;-1.04;100.00;101007.75;5049859;28;20208;-76
2023/12/03 00:30:11;;;;;;;19.93;10.37;;;;;;;-1.04;99.89;100997.28;5053742;28;20204;-77
2023/12/03 00:32:37;;;;;;;20.23;10.57;;;;;;;-1.04;99.49;100994.69;5049636;28;20565;-77
2023/12/03 00:35:04;;;;;;;23.47;11.20;;;;;;;-1.05;99.59;100998.16;5045810;28;20581;-77
2023/12/03 00:37:32;;;;;;;20.03;10.67;;;;;;;-1.06;99.61;100999.06;5046582;28;20656;-77
2023/12/03 00:39:59;;;;;;;22.53;11.60;;;;;;;-1.05;99.52;100992.94;5049552;28;20693;-76
2023/12/03 00:42:25;;;;;;;22.10;11.30;;;;;;;-1.06;99.44;100986.84;5055079;28;20205;-77
2023/12/03 00:44:52;;;;;;;21.53;11.00;;;;;;;-1.09;99.85;100991.25;5050374;28;20209;-76
2023/12/03 00:47:18;;;;;;;20.57;11.20;;;;;;;-1.09;99.85;100996.50;5046017;28;20765;-76
2023/12/03 00:49:45;;;;;;;21.73;11.53;;;;;;;-1.10;99.83;100993.00;5053390;28;20208;-76
2023/12/03 00:52:11;;;;;;;25.03;11.53;;;;;;;-1.10;99.89;101005.22;5047537;28;20820;-77
2023/12/03 00:54:39;;;;;;;26.93;11.90;;;;;;;-1.11;100.00;101006.97;5048872;28;20205;-77
2023/12/03 00:57:06;;;;;;;25.77;11.60;;;;;;;-1.11;100.00;101009.56;5046825;28;20213;-76
2023/12/03 00:59:32;;;;;;;21.97;11.00;;;;;;;-1.10;100.00;101011.31;5049700;28;20682;-77
2023/12/03 01:01:59;;;;;;;24.67;11.33;;;;;;;-1.05;99.95;101014.72;5050296;28;20593;-77
2023/12/03 01:04:25;;;;;;;23.30;11.80;;;;;;;-1.06;99.91;101009.50;5048962;28;20202;-76
2023/12/03 01:06:51;;;;;;;25.93;11.60;;;;;;;-1.09;100.00;101009.56;5049799;28;20206;-75
2023/12/03 01:09:18;;;;;;;22.57;11.60;;;;;;;-1.09;100.00;101009.56;5048131;28;20217;-76
2023/12/03 01:11:46;;;;;;;22.87;11.77;;;;;;;-1.09;100.00;101018.28;5045020;28;20221;-76
2023/12/03 01:14:13;;;;;;;26.23;12.87;;;;;;;-1.06;100.00;101019.97;5046236;28;20205;-76
2023/12/03 01:16:40;;;;;;;26.57;13.23;;;;;;;-1.07;100.00;101026.06;5055825;28;20213;-76
2023/12/03 01:19:06;;;;;;;30.10;14.50;;;;;;;-1.06;100.00;101033.91;5048398;28;20250;-77
2023/12/03 01:21:32;;;;;;;28.57;13.73;;;;;;;-1.02;100.00;101034.75;5048229;28;20233;-77
2023/12/03 01:23:59;;;;;;;32.40;14.33;;;;;;;-1.02;100.00;101039.09;5048767;28;20696;-77
2023/12/03 01:26:25;;;;;;;30.73;14.63;;;;;;;-1.03;100.00;101040.84;5049190;28;20214;-76
2023/12/03 01:28:53;;;;;;;32.17;14.50;;;;;;;-1.00;100.00;101039.97;5051369;28;20214;-77
2023/12/03 01:31:20;;;;;;;32.13;15.33;;;;;;;-0.98;100.00;101046.03;5048570;28;20252;-77
2023/12/03 01:33:47;;;;;;;32.07;14.93;;;;;;;-0.95;100.00;101048.63;5043748;28;20209;-78
2023/12/03 01:36:13;;;;;;;34.10;15.67;;;;;;;-0.98;100.00;101046.91;5050031;28;20251;-77
2023/12/03 01:38:40;;;;;;;37.93;15.80;;;;;;;-0.99;100.00;101052.16;5058151;28;20244;-75
2023/12/03 01:41:07;;;;;;;37.27;16.40;;;;;;;-1.01;100.00;101052.16;5049169;28;20803;-76
2023/12/03 01:43:46;;;;;;;33.73;15.33;;;;;;;-0.99;100.00;101046.91;5049698;28;20566;-78
2023/12/03 01:46:15;;;;;;;38.87;16.93;;;;;;;-1.03;100.00;101043.47;5049182;28;20204;-78
2023/12/03 01:48:42;;;;;;;39.33;17.23;;;;;;;-1.04;100.00;101054.78;5049039;28;20566;-78
2023/12/03 01:51:09;;;;;;;38.33;17.17;;;;;;;-1.02;100.00;101050.44;5047303;28;20228;-77
2023/12/03 01:53:36;;;;;;;36.73;16.50;;;;;;;-0.95;100.00;101051.25;5048413;28;20208;-78
2023/12/03 01:56:04;;;;;;;41.30;17.20;;;;;;;-1.00;100.00;101043.44;5051001;28;20212;-78
2023/12/03 01:58:30;;;;;;;41.30;17.07;;;;;;;-1.01;100.00;101053.91;5052952;28;20231;-77
2023/12/03 02:00:57;;;;;;;41.57;18.57;;;;;;;-1.04;100.00;101049.56;5056433;28;21247;-78
2023/12/03 02:03:24;;;;;;;39.70;16.80;;;;;;;-1.03;100.00;101056.53;5048540;28;20293;-76
2023/12/03 02:06:02;;;;;;;37.80;16.80;;;;;;;-1.05;100.00;101060.91;5049494;28;20205;-76
2023/12/03 02:08:29;;;;;;;39.73;17.07;;;;;;;-1.08;100.00;101053.13;5051943;28;20576;-77
2023/12/03 02:10:55;;;;;;;41.63;18.27;;;;;;;-1.09;100.00;101043.53;5046312;28;20741;-76
2023/12/03 02:13:22;;;;;;;44.93;19.37;;;;;;;-1.07;100.00;101052.22;5048710;28;20202;-76
2023/12/03 02:15:49;;;;;;;40.80;17.93;;;;;;;-1.07;100.00;101058.31;5047418;28;20206;-78
2023/12/03 02:18:15;;;;;;;36.47;18.00;;;;;;;-1.06;100.00;101056.56;5049709;28;20205;-78
2023/12/03 02:20:43;;;;;;;42.17;18.57;;;;;;;-1.12;100.00;101057.50;5050523;28;20249;-78
2023/12/03 02:23:11;;;;;;;36.97;18.13;;;;;;;-1.09;100.00;101056.63;5048311;28;20215;-77
2023/12/03 02:25:38;;;;;;;43.87;18.83;;;;;;;-1.10;100.00;101058.34;5049228;28;20198;-77
2023/12/03 02:28:05;;;;;;;40.73;18.43;;;;;;;-1.11;100.00;101066.22;5049039;28;20221;-78
2023/12/03 02:30:31;;;;;;;48.97;21.43;;;;;;;-1.12;100.00;101065.34;5049123;28;20736;-77
2023/12/03 02:32:58;;;;;;;42.57;18.80;;;;;;;-1.10;100.00;101060.09;5054343;28;20204;-76
2023/12/03 02:35:24;;;;;;;46.93;20.67;;;;;;;-1.08;100.00;101068.81;5048689;28;20823;-77
2023/12/03 02:37:51;;;;;;;42.83;20.43;;;;;;;-1.08;100.00;101059.22;5050858;28;20201;-77
2023/12/03 02:40:19;;;;;;;43.13;18.83;;;;;;;-1.09;100.00;101061.84;5053281;28;20240;-77
2023/12/03 02:42:46;;;;;;;46.17;19.97;;;;;;;-1.08;100.00;101060.97;5048502;28;20205;-77
2023/12/03 02:45:13;;;;;;;47.73;19.57;;;;;;;-1.08;100.00;101067.06;5049222;28;20655;-77
2023/12/03 02:47:39;;;;;;;54.20;20.83;;;;;;;-1.09;100.00;101069.69;5047967;28;20215;-76
2023/12/03 02:50:07;;;;;;;51.10;21.77;;;;;;;-1.11;100.00;101067.06;5048642;28;20202;-77
2023/12/03 02:52:33;;;;;;;45.70;21.17;;;;;;;-1.08;100.00;101066.19;5048794;28;20965;-78
2023/12/03 02:54:59;;;;;;;50.87;21.23;;;;;;;-1.07;100.00;101078.34;5047907;28;20252;-78
2023/12/03 02:57:27;;;;;;;45.40;21.00;;;;;;;-1.07;100.00;101068.75;5050569;28;20214;-78
2023/12/03 02:59:54;;;;;;;51.43;22.53;;;;;;;-1.05;100.00;101071.34;5050429;28;20224;-78
2023/12/03 03:02:20;;;;;;;54.50;23.40;;;;;;;-1.03;100.00;101072.22;5052553;28;20218;-77
2023/12/03 03:04:47;;;;;;;46.83;22.47;;;;;;;-1.00;100.00;101072.19;5054878;28;20201;-77
2023/12/03 03:07:13;;;;;;;46.80;21.13;;;;;;;-1.00;100.00;101072.19;5053667;28;20576;-78
2023/12/03 03:09:39;;;;;;;43.63;21.57;;;;;;;-1.01;100.00;101073.06;5052584;28;20217;-76
2023/12/03 03:12:06;;;;;;;50.67;22.27;;;;;;;-1.03;100.00;101074.84;5052789;28;20264;-77
2023/12/03 03:14:34;;;;;;;45.00;22.20;;;;;;;-0.96;100.00;101066.06;5053580;28;20202;-78
2023/12/03 03:17:01;;;;;;;53.67;23.10;;;;;;;-1.00;100.00;101074.81;5054930;28;20214;-78
2023/12/03 03:19:27;;;;;;;48.90;20.50;;;;;;;-0.99;100.00;101079.16;5051909;28;20236;-78
2023/12/03 03:21:54;;;;;;;44.60;20.70;;;;;;;-0.98;100.00;101067.81;5052042;28;20728;-78
2023/12/03 03:24:20;;;;;;;47.10;20.97;;;;;;;-1.00;100.00;101069.56;5055244;28;20673;-77
2023/12/03 03:26:46;;;;;;;47.33;21.30;;;;;;;-0.96;100.00;101071.28;5054238;28;20689;-77
2023/12/03 03:29:13;;;;;;;44.37;21.50;;;;;;;-0.96;100.00;101076.53;5052065;28;20198;-76
2023/12/03 03:31:41;;;;;;;49.33;21.70;;;;;;;-0.98;100.00;101073.06;5052810;28;20244;-76
2023/12/03 03:34:09;;;;;;;45.23;21.00;;;;;;;-0.94;100.00;101066.06;5051843;28;20209;-76
2023/12/03 03:36:35;;;;;;;43.90;22.10;;;;;;;-0.90;100.00;101073.84;5051679;28;20201;-76
2023/12/03 03:39:02;;;;;;;45.33;21.57;;;;;;;-0.95;100.00;101073.03;5052071;28;20221;-76
2023/12/03 03:41:29;;;;;;;44.53;20.77;;;;;;;-0.96;100.00;101066.06;5053242;28;20221;-77
2023/12/03 03:43:55;;;;;;;49.40;22.60;;;;;;;-0.95;100.00;101072.16;5056490;28;20242;-77
2023/12/03 03:46:22;;;;;;;49.27;22.83;;;;;;;-0.95;100.00;101066.94;5052671;28;20197;-77
2023/12/03 03:48:50;;;;;;;44.37;20.27;;;;;;;-0.93;100.00;101075.63;5051299;28;20213;-77
2023/12/03 03:51:16;;;;;;;46.53;20.67;;;;;;;-0.94;100.00;101074.75;5053386;28;20252;-77
2023/12/03 03:53:43;;;;;;;50.53;20.97;;;;;;;-0.94;100.00;101081.75;5051974;28;20209;-77
2023/12/03 03:56:11;;;;;;;40.07;19.63;;;;;;;-0.92;100.00;101077.38;5052706;28;20213;-77
2023/12/03 03:58:38;;;;;;;47.93;21.00;;;;;;;-0.89;100.00;101082.53;5051462;28;20220;-77
2023/12/03 04:01:05;;;;;;;45.07;21.20;;;;;;;-0.88;100.00;101090.38;5056980;28;20236;-77
2023/12/03 04:03:32;;;;;;;45.97;21.50;;;;;;;-0.83;100.00;101078.13;5051501;28;20233;-77
2023/12/03 04:06:01;;;;;;;42.77;20.77;;;;;;;-0.84;100.00;101089.47;5051524;28;20220;-76
2023/12/03 04:08:28;;;;;;;47.07;21.57;;;;;;;-0.84;100.00;101085.97;5052647;28;20220;-77
2023/12/03 04:10:54;;;;;;;40.43;20.57;;;;;;;-0.85;100.00;101092.09;5054121;28;20670;-77
2023/12/03 04:13:21;;;;;;;46.63;21.80;;;;;;;-0.87;100.00;101081.66;5051475;28;20210;-77
2023/12/03 04:15:47;;;;;;;46.67;20.93;;;;;;;-0.86;100.00;101083.38;5051402;28;20214;-77
2023/12/03 04:18:14;;;;;;;44.30;21.23;;;;;;;-0.84;100.00;101085.97;5052037;28;20209;-77
2023/12/03 04:20:40;;;;;;;45.60;20.97;;;;;;;-0.82;100.00;101082.47;5051153;28;20264;-76
2023/12/03 04:23:10;;;;;;;45.13;22.37;;;;;;;-0.85;100.00;101081.63;5051369;28;20208;-76
2023/12/03 04:25:37;;;;;;;43.20;21.30;;;;;;;-0.86;100.00;101083.38;5051594;28;20654;-76
2023/12/03 04:28:04;;;;;;;41.80;20.67;;;;;;;-0.86;100.00;101087.75;5051215;28;20214;-77
2023/12/03 04:30:30;;;;;;;47.00;22.07;;;;;;;-0.83;100.00;101087.72;5051535;28;20218;-77
2023/12/03 04:32:57;;;;;;;43.93;21.43;;;;;;;-0.85;100.00;101090.34;5051246;28;20202;-77
2023/12/03 04:35:23;;;;;;;44.13;21.03;;;;;;;-0.84;100.00;101086.84;5051121;28;20208;-76
2023/12/03 04:37:49;;;;;;;49.60;21.90;;;;;;;-0.83;100.00;101098.19;5053615;28;20296;-76
2023/12/03 04:40:18;;;;;;;45.50;20.90;;;;;;;-0.86;100.00;101093.84;5053411;28;20221;-76
2023/12/03 04:42:44;;;;;;;41.97;19.77;;;;;;;-0.88;100.00;101092.13;5049887;28;20585;-76
2023/12/03 04:45:11;;;;;;;50.07;21.47;;;;;;;-0.88;100.00;101095.59;5050725;28;20209;-77
2023/12/03 04:47:37;;;;;;;45.13;21.40;;;;;;;-0.87;100.00;101084.25;5049656;28;20197;-77
2023/12/03 04:50:04;;;;;;;44.40;21.03;;;;;;;-0.88;100.00;101094.72;5051485;28;20193;-77
2023/12/03 04:52:31;;;;;;;44.37;21.57;;;;;;;-0.89;100.00;101093.88;5052248;28;20209;-76
2023/12/03 04:54:57;;;;;;;43.70;21.33;;;;;;;-0.89;100.00;101099.09;5060472;28;20208;-76
2023/12/03 04:57:25;;;;;;;45.37;20.83;;;;;;;-0.88;100.00;101102.56;5050336;28;20217;-76
2023/12/03 04:59:51;;;;;;;44.43;20.40;;;;;;;-0.88;100.00;101106.06;5044546;28;20234;-76
2023/12/03 05:02:18;;;;;;;45.33;20.77;;;;;;;-0.86;100.00;101106.91;5055631;28;20226;-76
2023/12/03 05:04:44;;;;;;;43.73;20.83;;;;;;;-0.83;100.00;101109.50;5050714;28;20236;-75
2023/12/03 05:07:11;;;;;;;39.93;21.07;;;;;;;-0.84;100.00;101106.91;5050463;28;20216;-76
2023/12/03 05:09:39;;;;;;;42.27;20.83;;;;;;;-0.87;100.00;101107.78;5050620;28;20202;-76
2023/12/03 05:12:06;;;;;;;41.20;20.23;;;;;;;-0.86;100.00;101113.88;5054038;28;20236;-76
2023/12/03 05:14:34;;;;;;;46.93;22.70;;;;;;;-0.86;100.00;101104.28;5053393;28;20215;-76
2023/12/03 05:17:00;;;;;;;46.13;22.70;;;;;;;-0.84;100.00;101107.78;5050208;28;20208;-76
2023/12/03 05:19:26;;;;;;;43.10;21.50;;;;;;;-0.84;100.00;101112.13;5058413;28;20197;-76
2023/12/03 05:21:53;;;;;;;44.77;20.47;;;;;;;-0.80;100.00;101106.88;5049485;28;20230;-76
2023/12/03 05:24:19;;;;;;;45.63;20.53;;;;;;;-0.79;100.00;101111.22;5052604;28;20205;-76
2023/12/03 05:26:46;;;;;;;45.77;22.00;;;;;;;-0.76;100.00;101110.31;5050297;28;20213;-76
2023/12/03 05:29:12;;;;;;;50.73;21.37;;;;;;;-0.78;100.00;101112.94;5058831;28;20293;-76
2023/12/03 05:31:45;;;;;;;43.70;21.30;;;;;;;-0.79;100.00;101126.91;5053108;28;20636;-76
2023/12/03 05:34:12;;;;;;;47.30;21.60;;;;;;;-0.78;100.00;101119.94;5053651;28;20205;-76
2023/12/03 05:36:38;;;;;;;53.30;22.50;;;;;;;-0.77;100.00;101125.16;5051060;28;20205;-76
2023/12/03 05:39:05;;;;;;;49.43;22.30;;;;;;;-0.77;100.00;101133.00;5050282;28;20201;-76
2023/12/03 05:41:37;;;;;;;47.73;21.27;;;;;;;-0.75;100.00;101135.59;5048370;28;20862;-76
2023/12/03 05:44:04;;;;;;;47.83;21.97;;;;;;;-0.75;100.00;101143.44;5050022;28;20592;-76
2023/12/03 05:46:31;;;;;;;50.27;22.60;;;;;;;-0.75;100.00;101149.53;5051050;28;20654;-76
2023/12/03 05:48:59;;;;;;;48.33;22.90;;;;;;;-0.75;100.00;101154.78;5050396;28;20213;-76
2023/12/03 05:51:25;;;;;;;51.67;23.63;;;;;;;-0.74;100.00;101147.78;5050080;28;20221;-76
2023/12/03 05:53:51;;;;;;;50.10;22.80;;;;;;;-0.75;100.00;101152.16;5049909;28;20205;-75
2023/12/03 05:56:18;;;;;;;52.37;21.70;;;;;;;-0.73;100.00;101150.41;5046103;28;20201;-76
2023/12/03 05:58:44;;;;;;;54.73;22.90;;;;;;;-0.71;100.00;101164.28;5049559;28;20603;-76
2023/12/03 06:01:11;;;;;;;57.70;23.93;;;;;;;-0.70;100.00;101152.97;5038034;28;20596;-76
2023/12/03 06:03:37;;;;;;;53.77;23.73;;;;;;;-0.68;100.00;101159.94;5048671;28;20232;-76
2023/12/03 06:06:06;;;;;;;59.47;25.13;;;;;;;-0.70;100.00;101159.94;5054457;28;20209;-75
2023/12/03 06:08:32;;;;;;;55.57;23.40;;;;;;;-0.71;100.00;101161.69;5051514;28;20205;-76
2023/12/03 06:10:59;;;;;;;61.73;26.40;;;;;;;-0.68;100.00;101168.63;5050439;28;20244;-75
2023/12/03 06:13:28;;;;;;;56.57;24.93;;;;;;;-0.67;100.00;101162.53;5051122;28;20209;-75
2023/12/03 06:15:55;;;;;;;54.70;24.73;;;;;;;-0.66;100.00;101171.25;5050108;28;20232;-76
2023/12/03 06:18:21;;;;;;;57.07;24.00;;;;;;;-0.66;100.00;101166.00;5050122;28;20590;-75
2023/12/03 06:20:48;;;;;;;57.97;24.70;;;;;;;-0.65;100.00;101176.47;5049427;28;20241;-76
2023/12/03 06:23:15;;;;;;;54.40;25.40;;;;;;;-0.63;100.00;101174.72;5056092;28;20647;-76
2023/12/03 06:25:42;;;;;;;58.80;25.90;;;;;;;-0.62;100.00;101179.06;5051747;28;20206;-75
2023/12/03 06:28:09;;;;;;;55.77;24.70;;;;;;;-0.62;100.00;101181.69;5049421;28;20205;-76
2023/12/03 06:30:36;;;;;;;61.00;26.03;;;;;;;-0.62;100.00;101179.06;5051207;28;20228;-76
2023/12/03 06:33:02;;;;;;;60.20;25.90;;;;;;;-0.61;100.00;101177.31;5052424;28;20206;-76
2023/12/03 06:35:29;;;;;;;61.63;27.40;;;;;;;-0.61;100.00;101177.31;5055040;28;20205;-76
2023/12/03 06:37:55;;;;;;;61.97;26.50;;;;;;;-0.60;100.00;101176.44;5058951;28;20317;-76
2023/12/03 06:40:23;;;;;;;58.63;25.60;;;;;;;-0.60;100.00;101181.66;5057972;28;20220;-75
2023/12/03 06:42:49;;;;;;;57.07;25.70;;;;;;;-0.60;100.00;101182.53;5051601;28;20205;-75
2023/12/03 06:45:16;;;;;;;59.40;23.83;;;;;;;-0.58;100.00;101186.00;5052425;28;20205;-76
2023/12/03 06:47:42;;;;;;;62.53;26.90;;;;;;;-0.58;100.00;101190.38;5055117;28;20201;-76
2023/12/03 06:50:09;;;;;;;61.57;25.33;;;;;;;-0.59;100.00;101201.72;5053487;28;20190;-76
2023/12/03 06:52:36;;;;;;;61.17;25.10;;;;;;;-0.60;100.00;101200.84;5052779;28;20208;-76
2023/12/03 06:55:03;;;;;;;59.57;25.00;;;;;;;-0.57;100.00;101210.41;5052281;28;20305;-75
2023/12/03 06:57:31;;;;;;;62.80;25.47;;;;;;;-0.56;100.00;101206.91;5050555;28;20216;-76
2023/12/03 06:59:57;;;;;;;57.97;25.43;;;;;;;-0.54;100.00;101207.78;5054295;28;20670;-76
2023/12/03 07:02:23;;;;;;;60.67;26.53;;;;;;;-0.54;100.00;101205.16;5055333;28;20224;-76
2023/12/03 07:04:50;;;;;;;57.87;25.10;;;;;;;-0.52;100.00;101211.22;5056524;28;20216;-76
2023/12/03 07:07:16;;;;;;;61.23;26.83;;;;;;;-0.51;100.00;101208.59;5052363;28;20197;-75
2023/12/03 07:09:43;;;;;;;59.17;25.27;;;;;;;-0.52;100.00;101206.00;5054484;28;20201;-75
2023/12/03 07:12:09;;;;;;;57.70;25.03;;;;;;;-0.51;100.00;101221.69;5051217;28;20230;-76
2023/12/03 07:14:37;;;;;;;56.63;25.27;;;;;;;-0.50;100.00;101228.63;5051175;28;20823;-76
2023/12/03 07:17:04;;;;;;;53.13;24.17;;;;;;;-0.47;100.00;101222.53;5055642;28;20205;-76
2023/12/03 07:19:30;;;;;;;59.37;26.23;;;;;;;-0.46;100.00;101229.50;5053574;28;20202;-75
2023/12/03 07:22:00;;;;;;;59.47;26.97;;;;;;;-0.45;100.00;101223.38;5047534;28;20237;-75
2023/12/03 07:24:27;;;;;;;55.47;25.30;;;;;;;-0.44;100.00;101238.19;5051893;28;20199;-75
2023/12/03 07:26:53;;;;;;;58.53;25.87;;;;;;;-0.43;100.00;101245.16;5055529;28;20241;-75
2023/12/03 07:29:20;;;;;;;57.67;24.97;;;;;;;-0.42;100.00;101253.00;5054063;28;20198;-75
2023/12/03 07:31:48;;;;;;;64.93;25.73;;;;;;;-0.41;100.00;101253.88;5052522;28;20221;-75
2023/12/03 07:34:14;;;;;;;55.10;24.03;;;;;;;-0.42;100.00;101250.38;5051173;28;20210;-75
2023/12/03 07:36:41;;;;;;;56.57;24.90;;;;;;;-0.40;100.00;101256.47;5051528;28;20213;-76
2023/12/03 07:39:08;;;;;;;53.27;24.63;;;;;;;-0.38;100.00;101261.69;5051553;28;20209;-75
2023/12/03 07:41:34;;;;;;;57.30;25.07;;;;;;;-0.38;100.00;101267.81;5051244;28;20237;-75
2023/12/03 07:44:01;;;;;;;56.03;25.10;;;;;;;-0.37;100.00;101266.06;5051967;28;20210;-75
2023/12/03 07:46:27;;;;;;;50.13;23.87;;;;;;;-0.35;100.00;101279.97;5050508;28;20217;-75
2023/12/03 07:48:55;;;;;;;59.00;25.80;;;;;;;-0.35;100.00;101278.22;5056021;28;20202;-75
2023/12/03 07:51:22;;;;;;;51.87;24.30;;;;;;;-0.32;100.00;101281.69;5050725;28;20226;-76
2023/12/03 07:53:48;;;;;;;52.67;24.10;;;;;;;-0.32;100.00;101279.94;5051054;28;20205;-75
2023/12/03 07:56:14;;;;;;;51.13;23.90;;;;;;;-0.31;100.00;101273.84;5050881;28;20217;-75
2023/12/03 07:58:41;;;;;;;53.80;25.27;;;;;;;-0.26;100.00;101279.91;5050763;28;20217;-75
2023/12/03 08:01:08;;;;;;;54.27;24.13;;;;;;;-0.25;100.00;101280.78;5049120;28;20222;-76
2023/12/03 08:03:34;;;;;;;48.67;24.47;;;;;;;-0.23;100.00;101286.88;5053873;28;20206;-76
2023/12/03 08:06:02;;;;;;;54.70;25.00;;;;;;;-0.23;100.00;101289.47;5049709;28;20216;-76
2023/12/03 08:08:29;;;;;;;50.80;22.80;;;;;;;-0.22;100.00;101286.00;5049185;28;20209;-76
2023/12/03 08:10:55;;;;;;;56.90;24.53;;;;;;;-0.20;100.00;101294.69;5050798;28;20221;-75
2023/12/03 08:13:21;;;;;;;55.00;24.10;;;;;;;-0.22;100.00;101289.47;5048760;28;20821;-75
2023/12/03 08:15:47;;;;;;;53.77;24.47;;;;;;;-0.22;100.00;101292.09;5049637;28;20212;-76
2023/12/03 08:18:13;;;;;;;50.60;23.57;;;;;;;-0.20;100.00;101298.19;5051240;28;20206;-76
2023/12/03 08:20:40;;;;;;;55.27;24.27;;;;;;;-0.18;100.00;101300.78;5049984;28;20244;-76
2023/12/03 08:23:08;;;;;;;55.20;25.33;;;;;;;-0.17;100.00;101298.13;5052014;28;20233;-75
2023/12/03 08:25:34;;;;;;;52.50;24.37;;;;;;;-0.15;100.00;101298.13;5051105;28;20209;-76
2023/12/03 08:28:02;;;;;;;56.73;25.93;;;;;;;-0.15;100.00;101299.00;5050858;28;20214;-76
2023/12/03 08:30:29;;;;;;;55.90;27.03;;;;;;;-0.12;100.00;101298.97;5051116;28;20217;-76
2023/12/03 08:32:55;;;;;;;55.17;26.00;;;;;;;-0.12;100.00;101296.34;5054008;28;20201;-76
2023/12/03 08:35:21;;;;;;;50.57;24.27;;;;;;;-0.09;100.00;101293.72;5053092;28;20287;-76
2023/12/03 08:37:48;;;;;;;60.43;26.23;;;;;;;-0.06;100.00;101296.28;5051385;28;20209;-76
2023/12/03 08:40:16;;;;;;;55.23;25.70;;;;;;;-0.06;100.00;101300.66;5050999;28;20212;-76
2023/12/03 08:42:44;;;;;;;60.80;25.73;;;;;;;-0.03;100.00;101295.41;5056018;28;20213;-76
2023/12/03 08:45:10;;;;;;;49.63;23.50;;;;;;;-0.01;100.00;101305.00;5050875;28;20340;-76
2023/12/03 08:47:37;;;;;;;57.83;24.33;;;;;;;0.00;100.00;101306.69;5054027;28;20212;-76
2023/12/03 08:50:05;;;;;;;62.13;26.60;;;;;;;0.02;100.00;101301.44;5055461;28;20245;-76
2023/12/03 08:52:32;;;;;;;55.60;26.07;;;;;;;0.05;100.00;101311.03;5050845;28;20716;-76
2023/12/03 08:54:59;;;;;;;56.80;26.00;;;;;;;0.08;100.00;101311.00;5051042;28;20207;-76
2023/12/03 08:57:27;;;;;;;62.67;26.03;;;;;;;0.08;100.00;101303.16;5062703;28;20294;-76
2023/12/03 08:59:54;;;;;;;66.20;28.63;;;;;;;0.11;100.00;101311.84;5050185;28;20213;-76
2023/12/03 09:02:21;;;;;;;67.20;28.50;;;;;;;0.14;100.00;101305.72;5049489;28;20240;-76
2023/12/03 09:04:47;;;;;;;75.87;30.27;;;;;;;0.13;100.00;101317.94;5052818;28;20225;-76
2023/12/03 09:07:14;;;;;;;70.10;29.03;;;;;;;0.17;100.00;101313.53;5051020;28;20705;-76
2023/12/03 09:09:42;;;;;;;69.47;28.07;;;;;;;0.19;100.00;101314.38;5053362;28;20606;-76
2023/12/03 09:12:08;;;;;;;70.73;28.10;;;;;;;0.22;100.00;101316.97;5051310;28;20249;-76
2023/12/03 09:14:36;;;;;;;64.00;28.07;;;;;;;0.24;100.00;101328.28;5051460;28;20662;-76
2023/12/03 09:17:03;;;;;;;73.17;30.60;;;;;;;0.25;100.00;101336.13;5050704;28;20216;-76
2023/12/03 09:19:30;;;;;;;70.07;29.40;;;;;;;0.27;100.00;101330.88;5047413;28;20205;-76
2023/12/03 09:21:57;;;;;;;72.10;28.93;;;;;;;0.26;100.00;101339.63;5047894;28;20238;-76
2023/12/03 09:24:23;;;;;;;74.37;28.03;;;;;;;0.28;100.00;101340.47;5051493;28;20209;-76
2023/12/03 09:26:50;;;;;;;77.23;30.90;;;;;;;0.31;100.00;101350.94;5053019;28;20263;-76
2023/12/03 09:29:17;;;;;;;77.53;29.90;;;;;;;0.32;100.00;101345.69;5050030;28;20206;-76
2023/12/03 09:31:44;;;;;;;78.67;29.30;;;;;;;0.31;100.00;101345.69;5051093;28;20712;-77
2023/12/03 09:34:11;;;;;;;75.30;29.60;;;;;;;0.32;100.00;101355.28;5047779;28;20676;-76
2023/12/03 09:36:37;;;;;;;65.23;28.20;;;;;;;0.34;100.00;101358.78;5043786;28;20207;-76
2023/12/03 09:39:04;;;;;;;62.10;27.10;;;;;;;0.36;100.00;101358.75;5044744;28;20213;-77
2023/12/03 09:41:33;;;;;;;70.03;26.97;;;;;;;0.39;100.00;101361.31;5047716;28;20225;-77
2023/12/03 09:44:01;;;;;;;65.97;27.27;;;;;;;0.40;100.00;101361.31;5045970;28;20209;-76
2023/12/03 09:46:30;;;;;;;74.00;30.87;;;;;;;0.43;100.00;101368.28;5048555;28;20595;-77
2023/12/03 09:49:01;;;;;;;65.30;30.80;;;;;;;0.44;100.00;101365.63;5047112;28;20202;-76
2023/12/03 09:51:28;;;;;;;67.77;32.73;;;;;;;0.46;100.00;101366.50;5045030;28;20237;-77
2023/12/03 09:53:59;;;;;;;77.77;32.97;;;;;;;0.48;100.00;101367.34;5050250;28;20210;-76
2023/12/03 09:56:26;;;;;;;76.30;31.17;;;;;;;0.49;100.00;101374.34;5049471;28;20205;-76
2023/12/03 09:58:53;;;;;;;79.40;31.40;;;;;;;0.52;100.00;101373.44;5054203;28;20220;-76
2023/12/03 10:01:23;;;;;;;75.87;31.07;;;;;;;0.52;100.00;101373.44;5052447;28;20320;-76
2023/12/03 10:03:51;;;;;;;74.83;30.83;;;;;;;0.52;100.00;101379.56;5049431;28;20202;-77
2023/12/03 10:06:22;;;;;;;74.07;30.57;;;;;;;0.52;100.00;101379.56;5051699;28;20551;-77
2023/12/03 10:08:49;;;;;;;79.13;36.10;;;;;;;0.53;100.00;101383.03;5049591;28;20646;-77
2023/12/03 10:11:24;;;;;;;91.50;42.43;;;;;;;0.51;100.00;101384.81;5049473;28;20213;-77
2023/12/03 10:13:51;;;;;;;81.37;34.63;;;;;;;0.51;100.00;101384.81;5047664;28;20197;-76
2023/12/03 10:16:20;;;;;;;72.67;32.13;;;;;;;0.49;100.00;101387.44;5048075;28;20205;-78
2023/12/03 10:18:46;;;;;;;72.50;30.70;;;;;;;0.51;100.00;101398.78;5049821;28;20670;-77
2023/12/03 10:21:13;;;;;;;72.63;31.27;;;;;;;0.51;100.00;101398.78;5049152;28;20598;-77
2023/12/03 10:23:41;;;;;;;76.47;33.33;;;;;;;0.51;100.00;101396.16;5050626;28;20202;-77
2023/12/03 10:26:11;;;;;;;80.40;32.67;;;;;;;0.53;100.00;101399.63;5051931;28;20219;-78
2023/12/03 10:28:38;;;;;;;120.80;53.20;;;;;;;0.52;100.00;101404.88;5047356;28;20228;-77
2023/12/03 10:31:05;;;;;;;83.37;39.13;;;;;;;0.55;100.00;101402.22;5051449;28;20225;-77
2023/12/03 10:33:33;;;;;;;202.50;68.77;;;;;;;0.57;100.00;101400.44;5049468;28;20209;-77
2023/12/03 10:36:02;;;;;;;391.03;130.67;;;;;;;0.58;100.00;101405.66;5049069;28;20210;-77
2023/12/03 10:38:36;;;;;;;80.23;38.03;;;;;;;0.59;100.00;101410.03;5049416;28;20201;-77
2023/12/03 10:41:06;;;;;;;80.10;34.47;;;;;;;0.62;100.00;101406.50;5045424;28;20278;-77
2023/12/03 10:43:34;;;;;;;78.53;37.30;;;;;;;0.61;100.00;101410.88;5048365;28;20206;-77
2023/12/03 10:46:04;;;;;;;81.10;35.27;;;;;;;0.62;100.00;101406.50;5041666;28;20675;-76
2023/12/03 10:48:31;;;;;;;72.77;30.83;;;;;;;0.65;100.00;101406.50;5046595;28;20209;-77
2023/12/03 10:51:03;;;;;;;67.93;28.47;;;;;;;0.67;100.00;101408.22;5047975;28;20229;-77
2023/12/03 10:53:32;;;;;;;60.20;29.47;;;;;;;0.68;100.00;101412.56;5048888;28;20916;-77
2023/12/03 10:55:58;;;;;;;73.10;31.77;;;;;;;0.70;100.00;101409.94;5044970;28;20233;-77
2023/12/03 10:58:27;;;;;;;68.53;29.07;;;;;;;0.76;100.00;101415.09;5049311;28;20216;-77
2023/12/03 11:01:01;;;;;;;71.57;32.20;;;;;;;0.79;100.00;101414.19;5048079;28;20218;-77
2023/12/03 11:03:36;;;;;;;63.40;29.43;;;;;;;0.83;100.00;101414.16;5048139;28;20213;-77